South Orleans, MA

2:12 PM EDT on September 19, 2014 (GMT -0400)
East Harwich DW5051 | Change Station
CLOSE
Current Station
Personal Weather Station
Location: East Harwich, MA
Elevation: 59 ft
Nearby Weather Stations

Elev 59 ft 41.72 °N, 70.03 °W | Updated 8 seconds ago

Mostly Cloudy
Mostly Cloudy
58.0 °F
Feels Like 58.0 °F
N
3.0
Wind Variable Wind from NNW
Gusts 14.0 mph

Today
High -- | Low -- °F
--% Chance of Precip.
Yesterday
High -- | Low -- °F
Precip. -- in
6:24 AM 6:42 PM
Waning Crescent, 18% visible
Pressure 30.39 in
Visibility 10.0 miles
Clouds Few 4200 ft
Dew Point 40 °F
Humidity 51%
Rainfall 0.00 in
Snow Depth Not available.
UV 3.5 out of 12
Pollen 3.40 out of 12
Air Quality Not available.
Flu Activity Not available.
METAR KCQX 191752Z AUTO 05011G17KT 10SM FEW042 14/02 A3038 RMK AO2 SLP289 T01390022 10150 20128 53009

More Conditions Fewer Conditions

Pressure 30.39 in
Visibility 10.0 miles
Clouds Few 4200 ft
Dew Point 40 °F
Humidity 51%
Rainfall 0.00 in
Snow Depth Not available.
UV 3.5 out of 12
Pollen 3.40 out of 12
Air Quality Not available.
Flu Activity Not available.
METAR KCQX 191752Z AUTO 05011G17KT 10SM FEW042 14/02 A3038 RMK AO2 SLP289 T01390022 10150 20128 53009

More Conditions Fewer Conditions

10-Day Weather Forecast

Almanac

Astronomy

Sep. 19, 2014 Rise Set
Actual Time 6:24 AM EDT 6:42 PM EDT
Civil Twilight 5:56 AM EDT 7:10 PM EDT
Nautical Twilight 5:23 AM EDT 7:42 PM EDT
Astronomical Twilight 4:50 AM EDT 8:16 PM EDT
Moon 2:03 AM EDT 4:11 PM EDT
Length of Visible Light 13h 13m
Length of Day
12h 18m
Tomorrow will be 2m 46s shorter.
Waning Crescent, 18% of the Moon is Illuminated
Today
Waning Crescent
Sep 24
New
Oct 1
First Quarter
Oct 8
Full
Oct 15
Last Quarter

Today's Extremes

State Highs State Lows

Community

WunderPhotos

Upload Photos

1,754,678 photos uploaded!

Nearby

Air Quality

  Air Quality AQ Index Pollutant
Yesterday Good
OZONE
Friday Good
PM2.5
Friday Good
OZONE

Snow Depth

Station Depth Elevation
No new snow has been reported.

Earthquake Activity

City Distance Mag. Time & Date
No recent earthquake activity has been reported nearby.
Minimum magnitude displayed is 2.5.

Coastal Water Temperatures

Place Temperature
Nantucket Island, MA 68.0 °F
Woods Hole, MA 69.1 °F
Fall River, MA 70.0 °F
Boston, MA 64.0 °F

Nearby Weather Stations